Impacts TAF Board INFO
FOR SITUATIONAL AWARENESS. NOT TO BE USED FOR FLIGHT PLANNING PURPOSES.
IDs:

KPHX - Phoenix/Sky Harbor, AZ, US

Issued at 2048 UTC 19 Feb 2017
Updated at 2059 UTC 19 Feb 2017
Potential Impact None Slight Moderate High
Time2051Z 19/21Z 19/22Z 19/23Z 20/00Z 20/01Z 20/02Z 20/03Z 20/04Z 20/05Z 20/06Z 20/07Z 20/08Z 20/09Z
Type OBS PRVL
  [TEMP]  
PRVL
  [TEMP]  
PRVL PRVL PRVL PRVL PRVL PRVL PRVL PRVL PRVL PRVL PRVL
VIS 10 >6 >6 >6 >6 >6 >6 >6 >6 >6 >6 >6 >6 >6
CIG 47 50
  [30]  
50
  [30]  
40 40 40 40 80 80 80 80 80 80 80
Cover OVC BKN
  [OVC]  
BKN
  [OVC]  
BKN BKN BKN BKN BKN BKN BKN BKN BKN BKN BKN
FltCat VFR VFR
  [MVFR]  
VFR
  [MVFR]  
VFR VFR VFR VFR VFR VFR VFR VFR VFR VFR VFR
WX -RA VCSH
  [--]  
VCSH
  [--]  
-- -- -- -- -- -- -- -- -- -- --
WDir 250 230
[230]
230
[230]
220 220 220 220 100 100 100 100 100 100 100
WSpd 9 6
  [6]  
6
  [6]  
8 8 8 8 5 5 5 5 5 5 5
WGst -- --
  [--]  
--
  [--]  
-- -- -- -- -- -- -- -- -- -- --

Raw TAF
KPHX 192048Z 1921/2018 23006KT P6SM VCSH FEW025 BKN050
  TEMPO 1921/1923 FEW020 BKN030 OVC050
  FM192300 22008KT P6SM SCT020 BKN040 BKN080
  FM200300 10005KT P6SM SCT040 BKN080


Raw METAR
KPHX 192051Z 25009KT 10SM -RA SCT035 BKN047 OVC060 14/10 A2992 RMK AO2 RAB49 SLP126 P0000 60000 T01390100 56004
KPHX 191951Z 00000KT 10SM FEW020 BKN050 OVC065 14/10 A2992 RMK AO2 SLP127 T01390100
KPHX 191947Z 16006KT 10SM FEW020 BKN050 OVC065 14/10 A2993 RMK AO2
KPHX 191851Z 16007KT 10SM SCT017 BKN024 OVC040 13/10 A2993 RMK AO2 RAE1755 SLP131 P0000 T01280100
KPHX 191841Z 17007KT 10SM SCT017 BKN024 OVC031 13/11 A2994 RMK AO2 RAE1755 P0000 T01330106
KPHX 191834Z 15006KT 10SM FEW014 SCT021 OVC031 13/10 A2994 RMK AO2 RAE1755 P0000 T01280100
KPHX 191751Z 13006KT 10SM -RA BKN015 BKN025 OVC030 12/10 A2993 RMK AO2 RAE1657B46 SLP131 P0000 60010 T01170100 10117 20100 51023

METAR Board
Radar Display
Forecast Discussion

FOR SITUATIONAL AWARENESS. NOT TO BE USED FOR FLIGHT PLANNING PURPOSES.

Page loaded:  20:59 UTC  |   12:59 PM Pacific  |   01:59 PM Mountain  |   02:59 PM Central  |   03:59 PM Eastern

 

ADVISORIES

FORECASTS

FORECASTS

OBSERVATIONS

USER TOOLS

ABOUT US